sensor_id;sensor_type;location;lat;lon;timestamp;P1;durP1;ratioP1;P2;durP2;ratioP2
31782;SDS011;18351;47.560;9.708;2023-02-13T00:00:45;45.88;;;24.63;;
31782;SDS011;18351;47.560;9.708;2023-02-13T00:03:11;42.83;;;25.15;;
31782;SDS011;18351;47.560;9.708;2023-02-13T00:05:37;39.33;;;23.05;;
31782;SDS011;18351;47.560;9.708;2023-02-13T00:08:02;43.58;;;25.67;;
31782;SDS011;18351;47.560;9.708;2023-02-13T00:10:28;41.75;;;24.10;;
31782;SDS011;18351;47.560;9.708;2023-02-13T00:12:54;42.38;;;23.75;;
31782;SDS011;18351;47.560;9.708;2023-02-13T00:15:19;45.55;;;24.88;;
31782;SDS011;18351;47.560;9.708;2023-02-13T00:17:45;41.97;;;23.67;;
31782;SDS011;18351;47.560;9.708;2023-02-13T00:20:11;43.83;;;24.55;;
31782;SDS011;18351;47.560;9.708;2023-02-13T00:22:37;45.40;;;24.98;;
31782;SDS011;18351;47.560;9.708;2023-02-13T00:25:03;45.53;;;24.02;;
31782;SDS011;18351;47.560;9.708;2023-02-13T00:27:29;49.03;;;26.33;;
31782;SDS011;18351;47.560;9.708;2023-02-13T00:29:55;46.13;;;25.42;;
31782;SDS011;18351;47.560;9.708;2023-02-13T00:32:21;47.17;;;26.38;;
31782;SDS011;18351;47.560;9.708;2023-02-13T00:34:46;53.53;;;26.98;;
31782;SDS011;18351;47.560;9.708;2023-02-13T00:37:12;46.50;;;26.02;;
31782;SDS011;18351;47.560;9.708;2023-02-13T00:39:37;46.83;;;25.98;;
31782;SDS011;18351;47.560;9.708;2023-02-13T00:42:03;47.50;;;25.50;;
31782;SDS011;18351;47.560;9.708;2023-02-13T00:44:29;49.13;;;26.70;;
31782;SDS011;18351;47.560;9.708;2023-02-13T00:46:55;46.50;;;24.98;;
31782;SDS011;18351;47.560;9.708;2023-02-13T00:49:20;53.97;;;27.80;;
31782;SDS011;18351;47.560;9.708;2023-02-13T00:51:46;48.65;;;28.38;;
31782;SDS011;18351;47.560;9.708;2023-02-13T00:54:12;53.83;;;28.27;;
31782;SDS011;18351;47.560;9.708;2023-02-13T00:56:37;46.20;;;26.17;;
31782;SDS011;18351;47.560;9.708;2023-02-13T00:59:03;46.17;;;25.55;;
31782;SDS011;18351;47.560;9.708;2023-02-13T01:01:28;44.75;;;24.35;;
31782;SDS011;18351;47.560;9.708;2023-02-13T01:03:54;47.42;;;25.45;;
31782;SDS011;18351;47.560;9.708;2023-02-13T01:06:20;46.53;;;26.90;;
31782;SDS011;18351;47.560;9.708;2023-02-13T01:08:45;43.28;;;25.50;;
31782;SDS011;18351;47.560;9.708;2023-02-13T01:11:11;49.85;;;27.52;;
31782;SDS011;18351;47.560;9.708;2023-02-13T01:13:36;48.45;;;27.90;;
31782;SDS011;18351;47.560;9.708;2023-02-13T01:16:02;49.15;;;26.80;;
31782;SDS011;18351;47.560;9.708;2023-02-13T01:18:28;46.20;;;27.17;;
31782;SDS011;18351;47.560;9.708;2023-02-13T01:20:54;50.67;;;27.65;;
31782;SDS011;18351;47.560;9.708;2023-02-13T01:23:21;53.00;;;29.27;;
31782;SDS011;18351;47.560;9.708;2023-02-13T01:25:47;46.17;;;26.95;;
31782;SDS011;18351;47.560;9.708;2023-02-13T01:28:15;49.17;;;28.75;;
31782;SDS011;18351;47.560;9.708;2023-02-13T01:30:41;47.83;;;28.70;;
31782;SDS011;18351;47.560;9.708;2023-02-13T01:33:08;49.78;;;28.33;;
31782;SDS011;18351;47.560;9.708;2023-02-13T01:35:37;50.25;;;28.65;;
31782;SDS011;18351;47.560;9.708;2023-02-13T01:38:03;47.20;;;26.85;;
31782;SDS011;18351;47.560;9.708;2023-02-13T01:40:29;52.40;;;29.05;;
31782;SDS011;18351;47.560;9.708;2023-02-13T01:42:55;48.38;;;27.33;;
31782;SDS011;18351;47.560;9.708;2023-02-13T01:45:22;52.45;;;27.92;;
31782;SDS011;18351;47.560;9.708;2023-02-13T01:47:52;55.53;;;29.80;;
31782;SDS011;18351;47.560;9.708;2023-02-13T01:50:21;60.78;;;31.80;;
31782;SDS011;18351;47.560;9.708;2023-02-13T01:52:56;51.30;;;28.10;;
31782;SDS011;18351;47.560;9.708;2023-02-13T01:55:23;45.22;;;26.42;;
31782;SDS011;18351;47.560;9.708;2023-02-13T01:57:52;49.33;;;27.48;;
31782;SDS011;18351;47.560;9.708;2023-02-13T02:00:22;45.67;;;26.08;;
31782;SDS011;18351;47.560;9.708;2023-02-13T02:02:49;44.83;;;26.83;;
31782;SDS011;18351;47.560;9.708;2023-02-13T02:05:19;40.83;;;25.48;;
31782;SDS011;18351;47.560;9.708;2023-02-13T02:07:48;48.65;;;27.13;;
31782;SDS011;18351;47.560;9.708;2023-02-13T02:10:16;44.38;;;25.75;;
31782;SDS011;18351;47.560;9.708;2023-02-13T02:15:08;44.10;;;25.48;;
31782;SDS011;18351;47.560;9.708;2023-02-13T02:17:34;41.92;;;24.30;;
31782;SDS011;18351;47.560;9.708;2023-02-13T02:38:10;42.15;;;23.77;;
31782;SDS011;18351;47.560;9.708;2023-02-13T02:43:23;41.20;;;24.13;;
31782;SDS011;18351;47.560;9.708;2023-02-13T02:46:16;42.80;;;24.13;;
31782;SDS011;18351;47.560;9.708;2023-02-13T02:49:24;38.28;;;23.83;;
31782;SDS011;18351;47.560;9.708;2023-02-13T02:52:06;41.10;;;24.90;;
31782;SDS011;18351;47.560;9.708;2023-02-13T02:54:49;38.28;;;23.52;;
31782;SDS011;18351;47.560;9.708;2023-02-13T02:57:34;43.38;;;23.63;;
31782;SDS011;18351;47.560;9.708;2023-02-13T03:00:24;43.28;;;25.15;;
31782;SDS011;18351;47.560;9.708;2023-02-13T03:03:16;50.33;;;27.48;;
31782;SDS011;18351;47.560;9.708;2023-02-13T03:06:03;46.95;;;25.60;;
31782;SDS011;18351;47.560;9.708;2023-02-13T03:08:42;46.50;;;26.08;;
31782;SDS011;18351;47.560;9.708;2023-02-13T03:11:29;43.53;;;25.70;;
31782;SDS011;18351;47.560;9.708;2023-02-13T03:14:16;48.58;;;27.58;;
31782;SDS011;18351;47.560;9.708;2023-02-13T03:16:44;44.80;;;26.88;;
31782;SDS011;18351;47.560;9.708;2023-02-13T03:31:31;52.10;;;27.77;;
31782;SDS011;18351;47.560;9.708;2023-02-13T03:34:06;45.97;;;26.92;;
31782;SDS011;18351;47.560;9.708;2023-02-13T03:37:13;51.10;;;27.10;;
31782;SDS011;18351;47.560;9.708;2023-02-13T03:40:01;47.53;;;27.10;;
31782;SDS011;18351;47.560;9.708;2023-02-13T03:48:11;47.83;;;26.90;;
31782;SDS011;18351;47.560;9.708;2023-02-13T03:51:01;48.45;;;26.30;;
31782;SDS011;18351;47.560;9.708;2023-02-13T03:53:28;54.60;;;29.45;;
31782;SDS011;18351;47.560;9.708;2023-02-13T03:55:57;50.85;;;27.60;;
31782;SDS011;18351;47.560;9.708;2023-02-13T03:58:45;51.60;;;28.25;;
31782;SDS011;18351;47.560;9.708;2023-02-13T04:01:34;49.83;;;26.80;;
31782;SDS011;18351;47.560;9.708;2023-02-13T04:04:22;142.50;;;63.95;;
31782;SDS011;18351;47.560;9.708;2023-02-13T04:07:01;108.03;;;53.75;;
31782;SDS011;18351;47.560;9.708;2023-02-13T04:09:34;73.75;;;38.22;;
31782;SDS011;18351;47.560;9.708;2023-02-13T04:12:13;57.30;;;30.27;;
31782;SDS011;18351;47.560;9.708;2023-02-13T04:14:52;54.22;;;30.05;;
31782;SDS011;18351;47.560;9.708;2023-02-13T04:17:25;47.67;;;27.80;;
31782;SDS011;18351;47.560;9.708;2023-02-13T04:20:03;52.70;;;29.00;;
31782;SDS011;18351;47.560;9.708;2023-02-13T04:22:30;56.25;;;29.73;;
31782;SDS011;18351;47.560;9.708;2023-02-13T04:24:55;56.67;;;29.77;;
31782;SDS011;18351;47.560;9.708;2023-02-13T04:27:21;55.03;;;28.55;;
31782;SDS011;18351;47.560;9.708;2023-02-13T04:29:51;57.85;;;29.50;;
31782;SDS011;18351;47.560;9.708;2023-02-13T04:32:16;52.65;;;29.60;;
31782;SDS011;18351;47.560;9.708;2023-02-13T04:34:42;59.40;;;31.17;;
31782;SDS011;18351;47.560;9.708;2023-02-13T04:37:07;60.45;;;33.03;;
31782;SDS011;18351;47.560;9.708;2023-02-13T04:39:33;64.25;;;33.28;;
31782;SDS011;18351;47.560;9.708;2023-02-13T04:41:59;60.78;;;31.95;;
31782;SDS011;18351;47.560;9.708;2023-02-13T04:44:24;59.78;;;31.27;;
31782;SDS011;18351;47.560;9.708;2023-02-13T04:46:50;59.40;;;31.15;;
31782;SDS011;18351;47.560;9.708;2023-02-13T04:49:15;55.58;;;29.83;;
31782;SDS011;18351;47.560;9.708;2023-02-13T04:51:41;53.83;;;29.92;;
31782;SDS011;18351;47.560;9.708;2023-02-13T04:54:06;55.67;;;30.48;;
31782;SDS011;18351;47.560;9.708;2023-02-13T04:56:32;59.10;;;30.67;;
31782;SDS011;18351;47.560;9.708;2023-02-13T04:58:57;60.55;;;30.08;;
31782;SDS011;18351;47.560;9.708;2023-02-13T05:01:23;62.65;;;31.45;;
31782;SDS011;18351;47.560;9.708;2023-02-13T05:03:49;57.30;;;29.92;;
31782;SDS011;18351;47.560;9.708;2023-02-13T05:06:14;59.22;;;30.02;;
31782;SDS011;18351;47.560;9.708;2023-02-13T05:08:40;56.67;;;30.88;;
31782;SDS011;18351;47.560;9.708;2023-02-13T05:11:05;55.47;;;29.27;;
31782;SDS011;18351;47.560;9.708;2023-02-13T05:13:31;53.47;;;29.10;;
31782;SDS011;18351;47.560;9.708;2023-02-13T05:15:57;52.05;;;28.95;;
31782;SDS011;18351;47.560;9.708;2023-02-13T05:18:22;54.20;;;29.52;;
31782;SDS011;18351;47.560;9.708;2023-02-13T05:20:48;54.15;;;29.75;;
31782;SDS011;18351;47.560;9.708;2023-02-13T05:23:34;53.30;;;28.50;;
31782;SDS011;18351;47.560;9.708;2023-02-13T05:25:59;53.63;;;28.63;;
31782;SDS011;18351;47.560;9.708;2023-02-13T05:28:25;60.75;;;32.33;;
31782;SDS011;18351;47.560;9.708;2023-02-13T05:31:09;54.58;;;30.85;;
31782;SDS011;18351;47.560;9.708;2023-02-13T05:33:34;57.80;;;32.80;;
31782;SDS011;18351;47.560;9.708;2023-02-13T05:36:00;56.75;;;30.52;;
31782;SDS011;18351;47.560;9.708;2023-02-13T05:38:25;57.67;;;31.20;;
31782;SDS011;18351;47.560;9.708;2023-02-13T05:40:51;57.55;;;31.30;;
31782;SDS011;18351;47.560;9.708;2023-02-13T05:43:17;66.70;;;33.50;;
31782;SDS011;18351;47.560;9.708;2023-02-13T05:45:43;63.60;;;31.35;;
31782;SDS011;18351;47.560;9.708;2023-02-13T05:48:09;58.58;;;31.08;;
31782;SDS011;18351;47.560;9.708;2023-02-13T05:50:34;62.35;;;33.80;;
31782;SDS011;18351;47.560;9.708;2023-02-13T05:53:00;59.13;;;32.67;;
31782;SDS011;18351;47.560;9.708;2023-02-13T05:55:26;58.58;;;31.27;;
31782;SDS011;18351;47.560;9.708;2023-02-13T05:57:54;62.58;;;31.92;;
31782;SDS011;18351;47.560;9.708;2023-02-13T06:00:21;57.63;;;32.35;;
31782;SDS011;18351;47.560;9.708;2023-02-13T06:02:47;65.22;;;35.40;;
31782;SDS011;18351;47.560;9.708;2023-02-13T06:05:12;69.18;;;34.13;;
31782;SDS011;18351;47.560;9.708;2023-02-13T06:07:38;65.90;;;34.25;;
31782;SDS011;18351;47.560;9.708;2023-02-13T06:10:04;64.50;;;33.13;;
31782;SDS011;18351;47.560;9.708;2023-02-13T06:12:30;63.65;;;33.03;;
31782;SDS011;18351;47.560;9.708;2023-02-13T06:14:55;59.20;;;32.72;;
31782;SDS011;18351;47.560;9.708;2023-02-13T06:17:21;55.42;;;31.40;;
31782;SDS011;18351;47.560;9.708;2023-02-13T06:19:46;58.67;;;30.83;;
31782;SDS011;18351;47.560;9.708;2023-02-13T06:22:12;60.47;;;31.45;;
31782;SDS011;18351;47.560;9.708;2023-02-13T06:24:37;64.70;;;32.55;;
31782;SDS011;18351;47.560;9.708;2023-02-13T06:27:03;55.10;;;30.73;;
31782;SDS011;18351;47.560;9.708;2023-02-13T06:29:28;57.88;;;30.63;;
31782;SDS011;18351;47.560;9.708;2023-02-13T06:31:55;56.10;;;30.60;;
31782;SDS011;18351;47.560;9.708;2023-02-13T06:34:21;61.28;;;31.98;;
31782;SDS011;18351;47.560;9.708;2023-02-13T06:36:46;66.38;;;32.90;;
31782;SDS011;18351;47.560;9.708;2023-02-13T06:39:12;59.55;;;32.55;;
31782;SDS011;18351;47.560;9.708;2023-02-13T06:41:38;67.03;;;35.05;;
31782;SDS011;18351;47.560;9.708;2023-02-13T06:44:03;67.47;;;35.78;;
31782;SDS011;18351;47.560;9.708;2023-02-13T06:46:29;65.70;;;34.45;;
31782;SDS011;18351;47.560;9.708;2023-02-13T06:48:54;70.93;;;34.83;;
31782;SDS011;18351;47.560;9.708;2023-02-13T06:51:20;65.88;;;34.22;;
31782;SDS011;18351;47.560;9.708;2023-02-13T06:53:45;72.47;;;36.67;;
31782;SDS011;18351;47.560;9.708;2023-02-13T06:56:11;70.15;;;36.17;;
31782;SDS011;18351;47.560;9.708;2023-02-13T06:58:36;67.80;;;34.95;;
31782;SDS011;18351;47.560;9.708;2023-02-13T07:01:03;66.30;;;34.22;;
31782;SDS011;18351;47.560;9.708;2023-02-13T07:03:29;67.78;;;34.05;;
31782;SDS011;18351;47.560;9.708;2023-02-13T07:05:55;67.90;;;34.58;;
31782;SDS011;18351;47.560;9.708;2023-02-13T07:08:20;67.22;;;35.42;;
31782;SDS011;18351;47.560;9.708;2023-02-13T07:10:46;72.13;;;36.70;;
31782;SDS011;18351;47.560;9.708;2023-02-13T07:13:12;70.70;;;37.10;;
31782;SDS011;18351;47.560;9.708;2023-02-13T07:15:38;82.25;;;43.33;;
31782;SDS011;18351;47.560;9.708;2023-02-13T07:18:04;78.70;;;39.05;;
31782;SDS011;18351;47.560;9.708;2023-02-13T07:20:29;70.05;;;36.85;;
31782;SDS011;18351;47.560;9.708;2023-02-13T07:22:59;69.45;;;36.03;;
31782;SDS011;18351;47.560;9.708;2023-02-13T07:25:28;54.40;;;28.80;;
31782;SDS011;18351;47.560;9.708;2023-02-13T07:27:54;74.70;;;35.58;;
31782;SDS011;18351;47.560;9.708;2023-02-13T07:30:24;68.75;;;35.47;;
31782;SDS011;18351;47.560;9.708;2023-02-13T07:32:49;70.35;;;37.03;;
31782;SDS011;18351;47.560;9.708;2023-02-13T07:35:16;67.07;;;35.35;;
31782;SDS011;18351;47.560;9.708;2023-02-13T07:37:41;74.95;;;39.15;;
31782;SDS011;18351;47.560;9.708;2023-02-13T07:40:07;72.95;;;37.80;;
31782;SDS011;18351;47.560;9.708;2023-02-13T07:42:33;71.82;;;38.50;;
31782;SDS011;18351;47.560;9.708;2023-02-13T07:44:59;71.53;;;36.95;;
31782;SDS011;18351;47.560;9.708;2023-02-13T07:47:25;67.25;;;35.63;;
31782;SDS011;18351;47.560;9.708;2023-02-13T07:49:50;71.55;;;36.80;;
31782;SDS011;18351;47.560;9.708;2023-02-13T07:52:16;62.97;;;34.65;;
31782;SDS011;18351;47.560;9.708;2023-02-13T07:54:41;63.80;;;34.88;;
31782;SDS011;18351;47.560;9.708;2023-02-13T07:57:11;63.90;;;34.80;;
31782;SDS011;18351;47.560;9.708;2023-02-13T07:59:38;60.95;;;32.40;;
31782;SDS011;18351;47.560;9.708;2023-02-13T08:02:03;59.83;;;33.53;;
31782;SDS011;18351;47.560;9.708;2023-02-13T08:04:29;64.05;;;34.42;;
31782;SDS011;18351;47.560;9.708;2023-02-13T08:06:54;71.05;;;36.38;;
31782;SDS011;18351;47.560;9.708;2023-02-13T08:09:20;71.93;;;37.47;;
31782;SDS011;18351;47.560;9.708;2023-02-13T08:12:05;70.03;;;37.20;;
31782;SDS011;18351;47.560;9.708;2023-02-13T08:14:32;67.80;;;37.45;;
31782;SDS011;18351;47.560;9.708;2023-02-13T08:16:58;65.97;;;35.90;;
31782;SDS011;18351;47.560;9.708;2023-02-13T08:19:25;73.50;;;36.60;;
31782;SDS011;18351;47.560;9.708;2023-02-13T08:21:51;71.53;;;36.10;;
31782;SDS011;18351;47.560;9.708;2023-02-13T08:24:16;65.95;;;35.90;;
31782;SDS011;18351;47.560;9.708;2023-02-13T08:26:42;63.83;;;35.20;;
31782;SDS011;18351;47.560;9.708;2023-02-13T08:29:08;60.72;;;32.90;;
31782;SDS011;18351;47.560;9.708;2023-02-13T08:31:34;65.85;;;34.67;;
31782;SDS011;18351;47.560;9.708;2023-02-13T08:33:59;62.55;;;35.15;;
31782;SDS011;18351;47.560;9.708;2023-02-13T08:36:25;62.03;;;33.65;;
31782;SDS011;18351;47.560;9.708;2023-02-13T08:38:51;64.03;;;33.90;;
31782;SDS011;18351;47.560;9.708;2023-02-13T08:41:16;62.55;;;35.00;;
31782;SDS011;18351;47.560;9.708;2023-02-13T08:43:43;60.45;;;32.38;;
31782;SDS011;18351;47.560;9.708;2023-02-13T08:46:08;57.92;;;32.10;;
31782;SDS011;18351;47.560;9.708;2023-02-13T08:48:34;59.25;;;32.97;;
31782;SDS011;18351;47.560;9.708;2023-02-13T08:50:59;62.88;;;35.72;;
31782;SDS011;18351;47.560;9.708;2023-02-13T08:53:33;66.50;;;34.13;;
31782;SDS011;18351;47.560;9.708;2023-02-13T08:55:59;58.05;;;31.55;;
31782;SDS011;18351;47.560;9.708;2023-02-13T08:58:24;62.47;;;33.55;;
31782;SDS011;18351;47.560;9.708;2023-02-13T09:00:50;59.15;;;32.70;;
31782;SDS011;18351;47.560;9.708;2023-02-13T09:03:15;55.63;;;32.60;;
31782;SDS011;18351;47.560;9.708;2023-02-13T09:05:41;60.47;;;31.75;;
31782;SDS011;18351;47.560;9.708;2023-02-13T09:08:07;63.35;;;32.60;;
31782;SDS011;18351;47.560;9.708;2023-02-13T09:10:35;64.32;;;32.72;;
31782;SDS011;18351;47.560;9.708;2023-02-13T09:13:01;66.57;;;34.45;;
31782;SDS011;18351;47.560;9.708;2023-02-13T09:15:28;55.72;;;32.22;;
31782;SDS011;18351;47.560;9.708;2023-02-13T09:17:54;59.97;;;31.73;;
31782;SDS011;18351;47.560;9.708;2023-02-13T09:20:19;62.75;;;31.80;;
31782;SDS011;18351;47.560;9.708;2023-02-13T09:22:45;60.55;;;32.90;;
31782;SDS011;18351;47.560;9.708;2023-02-13T09:25:10;58.42;;;31.85;;
31782;SDS011;18351;47.560;9.708;2023-02-13T09:27:36;60.17;;;32.28;;
31782;SDS011;18351;47.560;9.708;2023-02-13T09:30:03;57.50;;;31.48;;
31782;SDS011;18351;47.560;9.708;2023-02-13T09:32:30;59.42;;;31.70;;
31782;SDS011;18351;47.560;9.708;2023-02-13T09:34:56;54.13;;;31.75;;
31782;SDS011;18351;47.560;9.708;2023-02-13T09:37:21;56.13;;;31.55;;
31782;SDS011;18351;47.560;9.708;2023-02-13T09:39:47;59.10;;;33.13;;
31782;SDS011;18351;47.560;9.708;2023-02-13T09:42:20;57.53;;;31.08;;
31782;SDS011;18351;47.560;9.708;2023-02-13T09:44:50;49.95;;;28.98;;
31782;SDS011;18351;47.560;9.708;2023-02-13T09:50:06;51.17;;;30.10;;
31782;SDS011;18351;47.560;9.708;2023-02-13T09:52:49;55.92;;;30.45;;
31782;SDS011;18351;47.560;9.708;2023-02-13T09:55:31;58.72;;;32.25;;
31782;SDS011;18351;47.560;9.708;2023-02-13T09:58:08;54.85;;;30.70;;
31782;SDS011;18351;47.560;9.708;2023-02-13T10:00:57;55.83;;;30.38;;
31782;SDS011;18351;47.560;9.708;2023-02-13T10:03:30;53.92;;;31.48;;
31782;SDS011;18351;47.560;9.708;2023-02-13T10:08:51;52.22;;;29.67;;
31782;SDS011;18351;47.560;9.708;2023-02-13T10:11:35;53.03;;;30.98;;
31782;SDS011;18351;47.560;9.708;2023-02-13T10:16:42;46.40;;;27.92;;
31782;SDS011;18351;47.560;9.708;2023-02-13T10:19:30;53.60;;;28.90;;
31782;SDS011;18351;47.560;9.708;2023-02-13T10:22:06;49.35;;;29.77;;
31782;SDS011;18351;47.560;9.708;2023-02-13T10:30:02;50.28;;;28.42;;
31782;SDS011;18351;47.560;9.708;2023-02-13T10:32:54;50.75;;;29.05;;
31782;SDS011;18351;47.560;9.708;2023-02-13T10:35:44;49.95;;;29.70;;
31782;SDS011;18351;47.560;9.708;2023-02-13T10:38:37;49.80;;;29.08;;
31782;SDS011;18351;47.560;9.708;2023-02-13T10:47:28;53.25;;;31.42;;
31782;SDS011;18351;47.560;9.708;2023-02-13T10:49:54;53.30;;;30.40;;
31782;SDS011;18351;47.560;9.708;2023-02-13T11:03:20;53.20;;;30.65;;
31782;SDS011;18351;47.560;9.708;2023-02-13T11:05:47;50.17;;;29.38;;
31782;SDS011;18351;47.560;9.708;2023-02-13T11:08:18;56.28;;;32.15;;
31782;SDS011;18351;47.560;9.708;2023-02-13T11:10:54;54.55;;;30.13;;
31782;SDS011;18351;47.560;9.708;2023-02-13T11:13:20;52.22;;;30.77;;
31782;SDS011;18351;47.560;9.708;2023-02-13T11:16:04;57.38;;;31.92;;
31782;SDS011;18351;47.560;9.708;2023-02-13T11:18:35;52.72;;;31.45;;
31782;SDS011;18351;47.560;9.708;2023-02-13T11:21:12;53.70;;;30.83;;
31782;SDS011;18351;47.560;9.708;2023-02-13T11:23:49;59.95;;;33.33;;
31782;SDS011;18351;47.560;9.708;2023-02-13T11:26:28;56.80;;;32.28;;
31782;SDS011;18351;47.560;9.708;2023-02-13T11:29:00;49.78;;;30.13;;
31782;SDS011;18351;47.560;9.708;2023-02-13T11:31:30;61.65;;;32.50;;
31782;SDS011;18351;47.560;9.708;2023-02-13T11:39:36;58.03;;;32.85;;
31782;SDS011;18351;47.560;9.708;2023-02-13T11:42:02;59.30;;;33.85;;
31782;SDS011;18351;47.560;9.708;2023-02-13T11:47:01;56.65;;;31.85;;
31782;SDS011;18351;47.560;9.708;2023-02-13T11:49:28;56.20;;;32.63;;
31782;SDS011;18351;47.560;9.708;2023-02-13T11:52:03;57.85;;;32.83;;
31782;SDS011;18351;47.560;9.708;2023-02-13T11:54:35;61.10;;;33.28;;
31782;SDS011;18351;47.560;9.708;2023-02-13T11:57:19;59.47;;;33.63;;
31782;SDS011;18351;47.560;9.708;2023-02-13T12:00:00;66.37;;;36.20;;
31782;SDS011;18351;47.560;9.708;2023-02-13T12:02:46;63.78;;;34.30;;
31782;SDS011;18351;47.560;9.708;2023-02-13T12:05:23;64.53;;;35.88;;
31782;SDS011;18351;47.560;9.708;2023-02-13T12:07:50;60.45;;;34.38;;
31782;SDS011;18351;47.560;9.708;2023-02-13T12:15:29;58.78;;;33.75;;
31782;SDS011;18351;47.560;9.708;2023-02-13T12:26:08;68.07;;;36.90;;
31782;SDS011;18351;47.560;9.708;2023-02-13T12:28:51;62.08;;;35.17;;
31782;SDS011;18351;47.560;9.708;2023-02-13T12:36:56;59.65;;;33.92;;
31782;SDS011;18351;47.560;9.708;2023-02-13T12:39:35;64.65;;;36.50;;
31782;SDS011;18351;47.560;9.708;2023-02-13T12:42:21;61.80;;;35.65;;
31782;SDS011;18351;47.560;9.708;2023-02-13T13:02:24;79.63;;;42.58;;
31782;SDS011;18351;47.560;9.708;2023-02-13T13:11:01;71.18;;;38.47;;
31782;SDS011;18351;47.560;9.708;2023-02-13T13:13:37;72.55;;;36.97;;
31782;SDS011;18351;47.560;9.708;2023-02-13T13:22:20;63.42;;;33.90;;
31782;SDS011;18351;47.560;9.708;2023-02-13T13:25:07;63.30;;;34.08;;
31782;SDS011;18351;47.560;9.708;2023-02-13T13:27:41;60.97;;;33.00;;
31782;SDS011;18351;47.560;9.708;2023-02-13T13:30:19;59.75;;;31.95;;
31782;SDS011;18351;47.560;9.708;2023-02-13T13:32:51;65.18;;;33.45;;
31782;SDS011;18351;47.560;9.708;2023-02-13T13:35:21;60.28;;;32.60;;
31782;SDS011;18351;47.560;9.708;2023-02-13T13:37:50;62.85;;;33.88;;
31782;SDS011;18351;47.560;9.708;2023-02-13T13:40:41;58.97;;;33.33;;
31782;SDS011;18351;47.560;9.708;2023-02-13T13:46:16;59.53;;;32.60;;
31782;SDS011;18351;47.560;9.708;2023-02-13T13:51:16;62.65;;;33.53;;
31782;SDS011;18351;47.560;9.708;2023-02-13T13:59:18;59.97;;;32.63;;
31782;SDS011;18351;47.560;9.708;2023-02-13T14:07:35;54.72;;;30.90;;
31782;SDS011;18351;47.560;9.708;2023-02-13T14:10:03;69.40;;;37.00;;
31782;SDS011;18351;47.560;9.708;2023-02-13T14:14:55;59.97;;;32.50;;
31782;SDS011;18351;47.560;9.708;2023-02-13T14:20:36;63.45;;;32.58;;
31782;SDS011;18351;47.560;9.708;2023-02-13T14:28:54;63.28;;;34.05;;
31782;SDS011;18351;47.560;9.708;2023-02-13T14:31:29;66.75;;;35.65;;
31782;SDS011;18351;47.560;9.708;2023-02-13T14:33:56;68.57;;;33.60;;
31782;SDS011;18351;47.560;9.708;2023-02-13T14:36:28;60.72;;;31.63;;
31782;SDS011;18351;47.560;9.708;2023-02-13T14:39:04;63.55;;;32.78;;
31782;SDS011;18351;47.560;9.708;2023-02-13T14:44:21;65.57;;;33.47;;
31782;SDS011;18351;47.560;9.708;2023-02-13T14:47:02;64.85;;;33.60;;
31782;SDS011;18351;47.560;9.708;2023-02-13T14:49:31;65.80;;;34.20;;
31782;SDS011;18351;47.560;9.708;2023-02-13T14:52:06;66.32;;;34.00;;
31782;SDS011;18351;47.560;9.708;2023-02-13T14:54:49;64.00;;;33.85;;
31782;SDS011;18351;47.560;9.708;2023-02-13T14:57:22;62.80;;;33.28;;
31782;SDS011;18351;47.560;9.708;2023-02-13T15:00:27;66.63;;;32.58;;
31782;SDS011;18351;47.560;9.708;2023-02-13T15:03:06;64.30;;;32.20;;
31782;SDS011;18351;47.560;9.708;2023-02-13T15:06:13;65.35;;;34.50;;
31782;SDS011;18351;47.560;9.708;2023-02-13T15:08:50;70.00;;;35.08;;
31782;SDS011;18351;47.560;9.708;2023-02-13T15:11:36;63.72;;;32.13;;
31782;SDS011;18351;47.560;9.708;2023-02-13T15:14:49;64.50;;;32.80;;
31782;SDS011;18351;47.560;9.708;2023-02-13T15:16:57;67.38;;;34.63;;
31782;SDS011;18351;47.560;9.708;2023-02-13T15:19:41;62.25;;;33.53;;
31782;SDS011;18351;47.560;9.708;2023-02-13T15:22:15;71.95;;;35.70;;
31782;SDS011;18351;47.560;9.708;2023-02-13T15:24:51;71.57;;;36.33;;
31782;SDS011;18351;47.560;9.708;2023-02-13T15:27:27;70.57;;;35.70;;
31782;SDS011;18351;47.560;9.708;2023-02-13T15:30:13;73.20;;;36.72;;
31782;SDS011;18351;47.560;9.708;2023-02-13T15:32:58;72.97;;;35.83;;
31782;SDS011;18351;47.560;9.708;2023-02-13T15:35:26;62.45;;;33.10;;
31782;SDS011;18351;47.560;9.708;2023-02-13T15:37:55;68.05;;;36.47;;
31782;SDS011;18351;47.560;9.708;2023-02-13T15:40:22;70.35;;;36.72;;
31782;SDS011;18351;47.560;9.708;2023-02-13T15:42:56;74.40;;;36.92;;
31782;SDS011;18351;47.560;9.708;2023-02-13T15:45:23;73.07;;;36.30;;
31782;SDS011;18351;47.560;9.708;2023-02-13T15:47:51;73.32;;;37.38;;
31782;SDS011;18351;47.560;9.708;2023-02-13T15:50:26;69.13;;;36.05;;
31782;SDS011;18351;47.560;9.708;2023-02-13T15:52:54;72.20;;;38.05;;
31782;SDS011;18351;47.560;9.708;2023-02-13T15:55:29;76.40;;;38.20;;
31782;SDS011;18351;47.560;9.708;2023-02-13T15:57:57;75.15;;;38.13;;
31782;SDS011;18351;47.560;9.708;2023-02-13T16:00:29;73.63;;;37.83;;
31782;SDS011;18351;47.560;9.708;2023-02-13T16:03:01;78.57;;;38.92;;
31782;SDS011;18351;47.560;9.708;2023-02-13T16:05:32;85.35;;;40.53;;
31782;SDS011;18351;47.560;9.708;2023-02-13T16:08:19;75.22;;;36.45;;
31782;SDS011;18351;47.560;9.708;2023-02-13T16:13:51;77.53;;;38.83;;
31782;SDS011;18351;47.560;9.708;2023-02-13T16:16:48;81.20;;;39.92;;
31782;SDS011;18351;47.560;9.708;2023-02-13T16:22:26;79.03;;;38.95;;
31782;SDS011;18351;47.560;9.708;2023-02-13T16:25:05;80.82;;;40.33;;
31782;SDS011;18351;47.560;9.708;2023-02-13T16:27:40;83.15;;;40.22;;
31782;SDS011;18351;47.560;9.708;2023-02-13T16:33:07;90.45;;;42.47;;
31782;SDS011;18351;47.560;9.708;2023-02-13T16:35:33;84.55;;;41.35;;
31782;SDS011;18351;47.560;9.708;2023-02-13T16:38:02;90.18;;;45.42;;
31782;SDS011;18351;47.560;9.708;2023-02-13T16:51:32;103.38;;;47.40;;
31782;SDS011;18351;47.560;9.708;2023-02-13T16:56:55;90.53;;;46.05;;
31782;SDS011;18351;47.560;9.708;2023-02-13T16:59:37;102.03;;;45.58;;
31782;SDS011;18351;47.560;9.708;2023-02-13T17:02:13;93.75;;;44.20;;
31782;SDS011;18351;47.560;9.708;2023-02-13T17:07:35;105.38;;;49.13;;
31782;SDS011;18351;47.560;9.708;2023-02-13T17:12:53;86.70;;;40.70;;
31782;SDS011;18351;47.560;9.708;2023-02-13T17:15:21;79.82;;;38.60;;
31782;SDS011;18351;47.560;9.708;2023-02-13T17:17:49;85.55;;;39.80;;
31782;SDS011;18351;47.560;9.708;2023-02-13T17:20:16;88.70;;;41.50;;
31782;SDS011;18351;47.560;9.708;2023-02-13T17:22:45;90.65;;;38.92;;
31782;SDS011;18351;47.560;9.708;2023-02-13T17:25:17;86.05;;;41.83;;
31782;SDS011;18351;47.560;9.708;2023-02-13T17:27:46;88.57;;;40.78;;
31782;SDS011;18351;47.560;9.708;2023-02-13T17:30:13;94.57;;;42.58;;
31782;SDS011;18351;47.560;9.708;2023-02-13T17:32:44;86.53;;;41.63;;
31782;SDS011;18351;47.560;9.708;2023-02-13T17:35:11;93.45;;;42.80;;
31782;SDS011;18351;47.560;9.708;2023-02-13T17:37:37;89.72;;;42.58;;
31782;SDS011;18351;47.560;9.708;2023-02-13T17:40:04;90.10;;;41.85;;
31782;SDS011;18351;47.560;9.708;2023-02-13T17:42:30;95.93;;;43.92;;
31782;SDS011;18351;47.560;9.708;2023-02-13T17:44:56;104.15;;;47.42;;
31782;SDS011;18351;47.560;9.708;2023-02-13T17:47:22;112.18;;;51.70;;
31782;SDS011;18351;47.560;9.708;2023-02-13T17:49:49;107.50;;;49.90;;